createdAt,value
2023-10-15T00:02:25.452Z,10.19
2023-10-15T00:05:08.913Z,10.16
2023-10-15T00:07:52.911Z,10.13
2023-10-15T00:10:36.199Z,10.08
2023-10-15T00:13:19.360Z,10.04
2023-10-15T00:16:03.703Z,9.99
2023-10-15T00:18:46.645Z,9.95
2023-10-15T00:21:29.779Z,9.93
2023-10-15T00:24:12.687Z,9.91
2023-10-15T00:26:56.092Z,9.90
2023-10-15T00:29:38.947Z,9.89
2023-10-15T00:32:24.648Z,9.86
2023-10-15T00:35:08.791Z,9.82
2023-10-15T00:37:56.214Z,9.79
2023-10-15T00:40:39.640Z,9.75
2023-10-15T00:43:23.146Z,9.70
2023-10-15T00:46:14.466Z,9.67
2023-10-15T00:49:03.491Z,9.65
2023-10-15T00:51:47.866Z,9.47
2023-10-15T00:54:34.600Z,9.55
2023-10-15T00:57:27.951Z,9.60
2023-10-15T01:00:34.271Z,9.68
2023-10-15T01:03:18.681Z,9.70
2023-10-15T01:06:04.419Z,9.72
2023-10-15T01:08:48.340Z,9.71
2023-10-15T01:11:31.588Z,9.72
2023-10-15T01:14:15.499Z,9.72
2023-10-15T01:16:58.676Z,9.69
2023-10-15T01:19:41.744Z,9.71
2023-10-15T01:22:26.350Z,9.69
2023-10-15T01:25:20.902Z,9.70
2023-10-15T01:28:07.584Z,9.65
2023-10-15T01:30:51.618Z,9.60
2023-10-15T01:33:47.132Z,9.64
2023-10-15T01:36:30.074Z,9.54
2023-10-15T01:39:14.069Z,9.52
2023-10-15T01:42:04.726Z,9.53
2023-10-15T01:44:50.105Z,9.52
2023-10-15T01:47:36.806Z,9.51
2023-10-15T01:50:25.041Z,9.51
2023-10-15T01:53:08.414Z,9.49
2023-10-15T01:56:00.579Z,9.48
2023-10-15T01:58:45.843Z,9.43
2023-10-15T02:01:35.886Z,9.45
2023-10-15T02:04:22.888Z,9.45
2023-10-15T02:07:05.980Z,9.42
2023-10-15T02:09:49.107Z,9.40
2023-10-15T02:12:31.973Z,9.37
2023-10-15T02:15:23.831Z,9.33
2023-10-15T02:18:08.896Z,9.31
2023-10-15T02:21:02.416Z,9.28
2023-10-15T02:23:52.131Z,9.26
2023-10-15T02:26:36.343Z,9.27
2023-10-15T02:29:36.175Z,9.22
2023-10-15T02:32:32.439Z,9.20
2023-10-15T02:35:16.574Z,9.22
2023-10-15T02:38:00.430Z,9.23
2023-10-15T02:41:05.069Z,9.25
2023-10-15T02:43:49.819Z,9.24
2023-10-15T02:46:38.096Z,9.25
2023-10-15T02:49:26.948Z,9.28
2023-10-15T02:52:19.288Z,9.31
2023-10-15T02:55:06.971Z,9.31
2023-10-15T02:57:52.959Z,9.31
2023-10-15T03:00:37.087Z,9.31
2023-10-15T03:03:24.845Z,9.31
2023-10-15T03:06:11.009Z,9.29
2023-10-15T03:08:54.471Z,9.36
2023-10-15T03:11:39.734Z,9.37
2023-10-15T03:14:26.439Z,9.38
2023-10-15T03:17:14.546Z,9.40
2023-10-15T03:20:06.422Z,9.41
2023-10-15T03:22:53.433Z,9.41
2023-10-15T03:25:36.419Z,9.40
2023-10-15T03:28:19.401Z,9.40
2023-10-15T03:31:02.964Z,9.41
2023-10-15T03:33:59.834Z,9.39
2023-10-15T03:36:52.797Z,9.38
2023-10-15T03:39:51.238Z,9.39
2023-10-15T03:42:40.339Z,9.39
2023-10-15T03:45:27.646Z,9.35
2023-10-15T03:48:16.006Z,9.35
2023-10-15T03:50:59.585Z,9.33
2023-10-15T03:53:43.250Z,9.30
2023-10-15T03:56:29.250Z,9.26
2023-10-15T03:59:12.814Z,9.22
2023-10-15T04:01:57.976Z,9.16
2023-10-15T04:04:40.996Z,9.13
2023-10-15T04:07:26.184Z,9.11
2023-10-15T04:10:13.934Z,9.04
2023-10-15T04:13:00.240Z,9.01
2023-10-15T04:15:43.849Z,8.97
2023-10-15T04:18:28.120Z,8.97
2023-10-15T04:21:11.076Z,8.98
2023-10-15T04:23:57.323Z,8.95
2023-10-15T04:26:43.735Z,8.93
2023-10-15T04:29:32.006Z,8.94
2023-10-15T04:32:19.295Z,8.94
2023-10-15T04:35:03.609Z,8.93
2023-10-15T04:37:50.051Z,8.93
2023-10-15T04:40:40.963Z,8.93
2023-10-15T04:43:26.383Z,8.90
2023-10-15T04:46:10.691Z,8.89
2023-10-15T04:48:56.074Z,8.91
2023-10-15T04:51:43.852Z,8.84
2023-10-15T04:54:27.035Z,8.82
2023-10-15T04:57:10.816Z,8.80
2023-10-15T04:59:53.773Z,8.71
2023-10-15T05:02:38.257Z,8.69
2023-10-15T05:05:21.366Z,8.66
2023-10-15T05:08:04.574Z,8.68
2023-10-15T05:10:51.919Z,8.66
2023-10-15T05:13:35.181Z,8.65
2023-10-15T05:16:18.269Z,8.63
2023-10-15T05:19:03.068Z,8.61
2023-10-15T05:21:47.863Z,8.57
2023-10-15T05:24:31.615Z,8.52
2023-10-15T05:27:14.526Z,8.49
2023-10-15T05:29:59.155Z,8.49
2023-10-15T05:32:41.829Z,8.49
2023-10-15T05:35:28.486Z,8.49
2023-10-15T05:38:11.399Z,8.44
2023-10-15T05:41:01.805Z,8.42
2023-10-15T05:43:46.008Z,8.41
2023-10-15T05:46:32.127Z,8.40
2023-10-15T05:49:15.384Z,8.35
2023-10-15T05:52:00.076Z,8.25
2023-10-15T05:54:42.794Z,8.20
2023-10-15T05:57:25.906Z,8.24
2023-10-15T06:00:20.064Z,8.28
2023-10-15T06:03:03.458Z,8.30
2023-10-15T06:05:46.373Z,8.33
2023-10-15T06:08:31.251Z,8.37
2023-10-15T06:11:14.593Z,8.38
2023-10-15T06:13:57.826Z,8.39
2023-10-15T06:16:40.832Z,8.39
2023-10-15T06:19:23.813Z,8.38
2023-10-15T06:22:06.961Z,8.30
2023-10-15T06:24:51.307Z,8.33
2023-10-15T06:27:34.134Z,8.24
2023-10-15T06:30:23.085Z,8.26
2023-10-15T06:33:07.458Z,8.27
2023-10-15T06:35:52.528Z,8.32
2023-10-15T06:38:35.438Z,8.35
2023-10-15T06:41:19.698Z,8.34
2023-10-15T06:44:02.614Z,8.36
2023-10-15T06:46:45.606Z,8.38
2023-10-15T06:49:28.550Z,8.40
2023-10-15T06:52:11.467Z,8.36
2023-10-15T06:54:55.351Z,8.35
2023-10-15T06:57:40.361Z,8.35
2023-10-15T07:00:26.749Z,8.16
2023-10-15T07:03:09.989Z,8.09
2023-10-15T07:05:53.098Z,8.01
2023-10-15T07:08:36.170Z,8.02
2023-10-15T07:11:19.010Z,8.08
2023-10-15T07:14:04.308Z,8.34
2023-10-15T07:16:47.370Z,8.42
2023-10-15T07:19:30.326Z,8.48
2023-10-15T07:22:13.211Z,8.48
2023-10-15T07:24:56.502Z,8.40
2023-10-15T07:27:43.289Z,8.46
2023-10-15T07:30:29.242Z,8.55
2023-10-15T07:33:12.281Z,8.58
2023-10-15T07:35:55.236Z,8.61
2023-10-15T07:38:38.918Z,8.59
2023-10-15T07:41:21.807Z,8.55
2023-10-15T07:44:04.973Z,8.54
2023-10-15T07:46:53.949Z,8.54
2023-10-15T07:49:37.293Z,8.59
2023-10-15T07:52:20.419Z,8.56
2023-10-15T07:55:03.701Z,8.66
2023-10-15T07:57:47.792Z,8.69
2023-10-15T08:00:32.290Z,8.80
2023-10-15T08:03:17.589Z,8.82
2023-10-15T08:06:03.530Z,8.84
2023-10-15T08:08:47.090Z,8.88
2023-10-15T08:11:30.914Z,8.87
2023-10-15T08:14:13.897Z,8.89
2023-10-15T08:16:56.854Z,8.90
2023-10-15T08:19:41.147Z,8.93
2023-10-15T08:22:24.181Z,8.95
2023-10-15T08:25:11.625Z,9.06
2023-10-15T08:27:54.635Z,9.12
2023-10-15T08:30:37.791Z,9.08
2023-10-15T08:33:20.788Z,9.11
2023-10-15T08:36:05.246Z,9.11
2023-10-15T08:38:50.741Z,9.09
2023-10-15T08:41:35.115Z,9.09
2023-10-15T08:44:20.557Z,9.06
2023-10-15T08:47:05.922Z,8.98
2023-10-15T08:49:53.838Z,8.96
2023-10-15T08:52:40.440Z,8.93
2023-10-15T08:55:24.600Z,8.85
2023-10-15T08:58:10.728Z,8.83
2023-10-15T09:00:57.919Z,8.73
2023-10-15T09:03:41.135Z,8.74
2023-10-15T09:06:24.265Z,8.75
2023-10-15T09:09:08.510Z,8.78
2023-10-15T09:11:54.479Z,8.75
2023-10-15T09:14:41.967Z,8.71
2023-10-15T09:17:27.715Z,8.75
2023-10-15T09:20:12.066Z,8.68
2023-10-15T09:22:59.667Z,8.72
2023-10-15T09:25:45.998Z,8.64
2023-10-15T09:28:30.249Z,8.58
2023-10-15T09:31:13.689Z,8.62
2023-10-15T09:33:56.529Z,8.59
2023-10-15T09:36:39.813Z,8.65
2023-10-15T09:39:23.511Z,8.65
2023-10-15T09:42:07.836Z,8.64
2023-10-15T09:44:52.165Z,8.76
2023-10-15T09:47:36.700Z,8.74
2023-10-15T09:50:21.185Z,8.70
2023-10-15T09:53:10.750Z,8.75
2023-10-15T09:55:54.631Z,8.76
2023-10-15T09:58:39.696Z,8.80
2023-10-15T10:01:28.419Z,8.83
2023-10-15T10:04:53.834Z,8.82
2023-10-15T10:07:49.418Z,8.64
2023-10-15T10:10:58.217Z,8.73
2023-10-15T10:14:24.884Z,8.76
2023-10-15T10:17:11.137Z,8.71
2023-10-15T10:19:55.716Z,8.76
2023-10-15T10:22:39.991Z,8.73
2023-10-15T10:25:36.761Z,8.69
2023-10-15T10:28:22.032Z,8.69
2023-10-15T10:31:08.404Z,8.72
2023-10-15T10:33:55.553Z,8.68
2023-10-15T10:36:40.477Z,8.80
2023-10-15T10:39:23.745Z,8.80
2023-10-15T10:42:06.626Z,8.79
2023-10-15T10:44:49.583Z,8.80
2023-10-15T10:47:35.051Z,8.86
2023-10-15T10:50:20.832Z,8.91
2023-10-15T10:53:15.181Z,8.94
2023-10-15T10:56:05.744Z,8.88
2023-10-15T10:58:49.109Z,8.97
2023-10-15T11:01:34.715Z,9.05
2023-10-15T11:04:18.362Z,9.05
2023-10-15T11:07:05.292Z,9.03
2023-10-15T11:09:49.134Z,9.10
2023-10-15T11:12:32.060Z,9.04
2023-10-15T11:15:15.803Z,9.03
2023-10-15T11:17:59.179Z,9.10
2023-10-15T11:20:42.343Z,9.11
2023-10-15T11:23:27.975Z,9.17
2023-10-15T11:26:11.170Z,9.19
2023-10-15T11:28:54.115Z,9.27
2023-10-15T11:31:37.484Z,9.34
2023-10-15T11:34:22.755Z,9.44
2023-10-15T11:37:07.069Z,9.54
2023-10-15T11:39:52.349Z,9.59
2023-10-15T11:42:35.195Z,9.56
2023-10-15T11:45:26.503Z,9.51
2023-10-15T11:48:12.976Z,9.42
2023-10-15T11:50:57.026Z,9.40
2023-10-15T11:53:42.291Z,9.50
2023-10-15T11:56:27.957Z,9.46
2023-10-15T11:59:11.150Z,9.48
2023-10-15T12:01:54.284Z,9.46
2023-10-15T12:04:37.185Z,9.53
2023-10-15T12:10:15.353Z,9.50
2023-10-15T12:13:00.278Z,9.58
2023-10-15T12:15:43.939Z,9.70
2023-10-15T12:18:26.846Z,9.69
2023-10-15T12:21:09.717Z,9.63
2023-10-15T12:23:52.597Z,9.70
2023-10-15T12:26:35.481Z,9.94
2023-10-15T12:29:31.252Z,10.27
2023-10-15T12:32:14.385Z,10.67
2023-10-15T12:34:57.319Z,10.95
2023-10-15T12:37:40.367Z,11.24
2023-10-15T12:40:25.269Z,11.44
2023-10-15T12:43:10.540Z,11.50
2023-10-15T12:45:55.211Z,11.56
2023-10-15T12:48:37.877Z,11.58
2023-10-15T12:51:22.271Z,11.61
2023-10-15T12:54:05.751Z,11.30
2023-10-15T12:56:48.623Z,11.14
2023-10-15T12:59:32.670Z,11.15
2023-10-15T13:02:18.585Z,11.11
2023-10-15T13:05:03.524Z,11.12
2023-10-15T13:07:48.659Z,11.02
2023-10-15T13:10:33.553Z,11.04
2023-10-15T13:13:16.605Z,10.99
2023-10-15T13:16:00.060Z,10.93
2023-10-15T13:18:44.253Z,10.77
2023-10-15T13:21:27.157Z,10.64
2023-10-15T13:24:11.689Z,10.63
2023-10-15T13:26:54.659Z,10.60
2023-10-15T13:29:38.146Z,10.52
2023-10-15T13:32:21.207Z,10.38
2023-10-15T13:35:06.632Z,10.24
2023-10-15T13:37:49.713Z,10.18
2023-10-15T13:40:33.240Z,10.14
2023-10-15T13:43:16.141Z,10.09
2023-10-15T13:45:59.218Z,9.94
2023-10-15T13:48:42.584Z,9.94
2023-10-15T13:51:27.943Z,9.92
2023-10-15T13:54:10.843Z,9.82
2023-10-15T13:56:54.365Z,9.81
2023-10-15T13:59:38.445Z,9.79
2023-10-15T14:02:21.669Z,9.75
2023-10-15T14:05:06.570Z,9.83
2023-10-15T14:07:53.343Z,9.88
2023-10-15T14:10:36.577Z,9.94
2023-10-15T14:13:20.836Z,10.04
2023-10-15T14:16:05.779Z,9.92
2023-10-15T14:18:49.938Z,10.00
2023-10-15T14:21:32.921Z,10.03
2023-10-15T14:24:17.124Z,10.01
2023-10-15T14:27:00.030Z,9.76
2023-10-15T14:29:42.925Z,9.78
2023-10-15T14:32:25.915Z,9.60
2023-10-15T14:35:11.792Z,9.49
2023-10-15T14:37:56.105Z,9.42
2023-10-15T14:40:40.681Z,9.28
2023-10-15T14:43:23.800Z,9.20
2023-10-15T14:46:07.315Z,9.24
2023-10-15T14:48:50.157Z,9.21
2023-10-15T14:51:33.060Z,9.18
2023-10-15T14:54:16.241Z,9.18
2023-10-15T14:57:01.201Z,9.17
2023-10-15T14:59:44.070Z,9.22
2023-10-15T15:02:27.159Z,9.19
2023-10-15T15:05:10.266Z,9.19
2023-10-15T15:07:53.664Z,9.23
2023-10-15T15:10:37.066Z,9.28
2023-10-15T15:13:21.288Z,9.33
2023-10-15T15:16:04.489Z,9.33
2023-10-15T15:18:47.369Z,9.33
2023-10-15T15:21:30.207Z,9.35
2023-10-15T15:24:16.873Z,9.32
2023-10-15T15:27:00.118Z,9.21
2023-10-15T15:29:44.367Z,9.17
2023-10-15T15:32:28.723Z,9.12
2023-10-15T15:35:11.910Z,9.07
2023-10-15T15:37:54.845Z,9.05
2023-10-15T15:40:38.540Z,9.02
2023-10-15T15:43:25.192Z,8.98
2023-10-15T15:46:13.326Z,8.97
2023-10-15T15:48:57.137Z,8.95
2023-10-15T15:51:40.618Z,8.91
2023-10-15T15:54:25.676Z,8.85
2023-10-15T15:57:09.342Z,8.84
2023-10-15T15:59:53.420Z,8.73
2023-10-15T16:02:37.885Z,8.67
2023-10-15T16:05:21.427Z,8.41
2023-10-15T16:08:05.274Z,7.98
2023-10-15T16:10:48.182Z,7.78
2023-10-15T16:13:31.081Z,7.69
2023-10-15T16:16:13.938Z,7.65
2023-10-15T16:18:58.158Z,7.71
2023-10-15T16:21:41.039Z,7.62
2023-10-15T16:24:24.105Z,7.57
2023-10-15T16:27:11.162Z,7.56
2023-10-15T16:29:54.059Z,7.55
2023-10-15T16:32:37.278Z,7.49
2023-10-15T16:35:21.896Z,7.29
2023-10-15T16:38:05.181Z,7.24
2023-10-15T16:40:48.132Z,7.20
2023-10-15T16:43:31.493Z,7.23
2023-10-15T16:46:14.486Z,7.26
2023-10-15T16:48:57.448Z,7.19
2023-10-15T16:51:41.642Z,7.21
2023-10-15T16:54:24.725Z,7.19
2023-10-15T16:57:07.768Z,7.05
2023-10-15T16:59:57.641Z,6.97
2023-10-15T17:02:40.609Z,6.98
2023-10-15T17:05:24.102Z,6.96
2023-10-15T17:08:08.787Z,6.94
2023-10-15T17:10:51.752Z,6.94
2023-10-15T17:13:35.153Z,6.90
2023-10-15T17:16:18.050Z,6.87
2023-10-15T17:19:00.949Z,6.90
2023-10-15T17:21:43.988Z,6.88
2023-10-15T17:24:28.941Z,6.89
2023-10-15T17:27:11.946Z,6.87
2023-10-15T17:30:13.858Z,6.87
2023-10-15T17:32:57.800Z,6.85
2023-10-15T17:35:40.758Z,6.85
2023-10-15T17:38:23.963Z,6.87
2023-10-15T17:41:08.993Z,6.87
2023-10-15T17:43:51.890Z,6.91
2023-10-15T17:46:35.162Z,6.89
2023-10-15T17:49:18.128Z,6.88
2023-10-15T17:52:00.987Z,6.90
2023-10-15T17:54:44.700Z,6.92
2023-10-15T17:57:29.135Z,6.96
2023-10-15T18:00:15.812Z,6.94
2023-10-15T18:02:58.912Z,6.92
2023-10-15T18:05:41.851Z,6.89
2023-10-15T18:08:26.798Z,6.86
2023-10-15T18:11:10.472Z,6.81
2023-10-15T18:13:54.663Z,6.80
2023-10-15T18:16:38.125Z,6.69
2023-10-15T18:19:21.060Z,6.59
2023-10-15T18:22:04.008Z,6.47
2023-10-15T18:24:46.951Z,6.36
2023-10-15T18:27:30.199Z,6.33
2023-10-15T18:30:14.725Z,6.31
2023-10-15T18:32:57.679Z,6.32
2023-10-15T18:35:41.113Z,6.33
2023-10-15T18:38:25.628Z,6.33
2023-10-15T18:41:08.469Z,6.33
2023-10-15T18:43:51.414Z,6.36
2023-10-15T18:46:35.636Z,6.37
2023-10-15T18:49:19.480Z,6.40
2023-10-15T18:52:03.779Z,6.43
2023-10-15T18:54:46.893Z,6.44
2023-10-15T18:57:29.823Z,6.45
2023-10-15T19:00:15.162Z,6.47
2023-10-15T19:02:59.585Z,6.47
2023-10-15T19:05:42.529Z,6.47
2023-10-15T19:08:25.852Z,6.48
2023-10-15T19:11:14.441Z,6.45
2023-10-15T19:13:57.959Z,6.38
2023-10-15T19:16:40.869Z,6.39
2023-10-15T19:19:27.483Z,6.40
2023-10-15T19:22:11.513Z,6.37
2023-10-15T19:24:54.816Z,6.33
2023-10-15T19:27:38.267Z,6.35
2023-10-15T19:30:21.346Z,6.27
2023-10-15T19:33:04.599Z,6.23
2023-10-15T19:35:48.917Z,6.22
2023-10-15T19:38:32.242Z,6.23
2023-10-15T19:41:16.984Z,6.29
2023-10-15T19:44:00.525Z,6.23
2023-10-15T19:46:43.536Z,6.23
2023-10-15T19:49:27.505Z,6.24
2023-10-15T19:52:11.678Z,6.17
2023-10-15T19:54:55.501Z,6.15
2023-10-15T19:57:38.444Z,6.16
2023-10-15T20:00:21.575Z,6.15
2023-10-15T20:03:07.106Z,6.13
2023-10-15T20:05:50.600Z,6.10
2023-10-15T20:08:35.517Z,6.06
2023-10-15T20:11:18.410Z,5.94
2023-10-15T20:14:01.482Z,5.98
2023-10-15T20:16:44.318Z,5.93
2023-10-15T20:19:28.487Z,5.94
2023-10-15T20:22:12.176Z,5.95
2023-10-15T20:24:56.471Z,5.92
2023-10-15T20:27:41.311Z,5.91
2023-10-15T20:30:24.504Z,5.81
2023-10-15T20:33:07.474Z,5.75
2023-10-15T20:35:51.494Z,5.73
2023-10-15T20:38:35.419Z,5.70
2023-10-15T20:41:19.590Z,5.63
2023-10-15T20:44:02.477Z,5.63
2023-10-15T20:46:46.084Z,5.68
2023-10-15T20:49:29.044Z,5.61
2023-10-15T20:52:11.924Z,5.46
2023-10-15T20:54:54.748Z,5.41
2023-10-15T20:57:41.557Z,5.30
2023-10-15T21:00:24.601Z,5.23
2023-10-15T21:03:07.732Z,5.30
2023-10-15T21:05:51.116Z,5.37
2023-10-15T21:08:34.088Z,5.45
2023-10-15T21:11:17.084Z,5.51
2023-10-15T21:14:01.299Z,5.56
2023-10-15T21:16:44.226Z,5.60
2023-10-15T21:19:27.161Z,5.61
2023-10-15T21:22:12.231Z,5.62
2023-10-15T21:24:55.354Z,5.65
2023-10-15T21:27:39.284Z,5.67
2023-10-15T21:30:23.673Z,5.69
2023-10-15T21:33:06.967Z,5.70
2023-10-15T21:35:50.045Z,5.71
2023-10-15T21:38:33.281Z,5.76
2023-10-15T21:41:19.063Z,5.69
2023-10-15T21:44:02.474Z,5.60
2023-10-15T21:46:46.922Z,5.52
2023-10-15T21:49:29.871Z,5.53
2023-10-15T21:52:12.845Z,5.58
2023-10-15T21:54:55.881Z,5.60
2023-10-15T21:57:41.003Z,5.53
2023-10-15T22:00:30.836Z,5.52
2023-10-15T22:03:15.640Z,5.54
2023-10-15T22:06:00.795Z,5.53
2023-10-15T22:08:44.946Z,5.53
2023-10-15T22:11:28.561Z,5.54
2023-10-15T22:14:11.569Z,5.51
2023-10-15T22:16:55.966Z,5.54
2023-10-15T22:19:40.224Z,5.51
2023-10-15T22:22:25.345Z,5.53
2023-10-15T22:25:10.105Z,5.52
2023-10-15T22:27:53.012Z,5.45
2023-10-15T22:30:40.120Z,5.47
2023-10-15T22:33:23.555Z,5.38
2023-10-15T22:36:08.408Z,5.39
2023-10-15T22:38:51.649Z,5.37
2023-10-15T22:41:34.519Z,5.39
2023-10-15T22:44:18.129Z,5.40
2023-10-15T22:47:00.970Z,5.40
2023-10-15T22:49:44.190Z,5.39
2023-10-15T22:52:28.402Z,5.39
2023-10-15T22:55:11.405Z,5.35
2023-10-15T22:57:54.328Z,5.31
2023-10-15T23:00:37.254Z,5.28
2023-10-15T23:03:20.418Z,5.25
2023-10-15T23:06:05.742Z,5.27
2023-10-15T23:08:49.974Z,5.27
2023-10-15T23:11:32.860Z,5.27
2023-10-15T23:14:15.768Z,5.29
2023-10-15T23:17:02.098Z,5.28
2023-10-15T23:19:45.754Z,5.24
2023-10-15T23:22:28.636Z,5.28
2023-10-15T23:25:13.002Z,5.16
2023-10-15T23:27:58.362Z,5.06
2023-10-15T23:30:45.324Z,5.04
2023-10-15T23:33:31.436Z,5.02
2023-10-15T23:36:14.622Z,4.99
2023-10-15T23:38:57.517Z,4.94
2023-10-15T23:41:44.150Z,4.94
2023-10-15T23:44:27.182Z,4.80
2023-10-15T23:47:16.273Z,4.78
2023-10-15T23:49:59.749Z,4.71
2023-10-15T23:52:44.918Z,4.73
2023-10-15T23:55:28.018Z,4.70
2023-10-15T23:58:12.258Z,4.71
